Time;durP1;ratioP1;P1;durP2;ratioP2;P2;SDS_P1;SDS_P2;PMS_P1;PMS_P2;Temp;Humidity;BMP_temperature;BMP_pressure;BME280_temperature;BME280_humidity;BME280_pressure;Samples;Min_cycle;Max_cycle;Signal;HPM_P1;HPM_P2
2024/03/09 00:00:39;;;;;;;1999.90;999.90;;;;;;;3.26;87.56;100492.44;10316329;28;20437;-70
2024/03/09 00:05:42;;;;;;;1999.90;999.90;;;;;;;2.94;86.10;100492.56;10331873;28;20077;-70
2024/03/09 00:10:49;;;;;;;1999.90;999.90;;;;;;;3.09;87.18;100488.66;10348077;28;20154;-70
2024/03/09 00:15:51;;;;;;;1999.90;999.90;;;;;;;2.97;88.79;100482.09;10347607;28;20054;-70
2024/03/09 00:20:54;;;;;;;1999.90;999.90;;;;;;;3.01;89.46;100477.72;10332694;28;20112;-70
2024/03/09 00:25:57;;;;;;;1999.90;999.90;;;;;;;2.88;89.81;100472.06;10332767;28;20121;-70
2024/03/09 00:31:02;;;;;;;1999.90;999.90;;;;;;;3.01;90.11;100472.53;10332349;28;20073;-70
2024/03/09 00:36:06;;;;;;;1999.90;999.90;;;;;;;2.72;91.39;100471.69;10347278;28;20057;-70
2024/03/09 00:41:09;;;;;;;1999.90;999.90;;;;;;;2.82;91.16;100455.88;10331022;28;20054;-70
2024/03/09 00:46:17;;;;;;;1999.90;999.90;;;;;;;3.11;90.03;100452.38;10351644;28;20046;-70
2024/03/09 00:51:19;;;;;;;1999.90;999.90;;;;;;;3.09;90.52;100433.47;10339694;28;20051;-70
2024/03/09 00:56:22;;;;;;;1999.90;999.90;;;;;;;3.18;88.66;100435.78;10339400;28;20052;-70
2024/03/09 01:01:25;;;;;;;1999.90;999.90;;;;;;;3.15;89.97;100426.38;10354581;28;20385;-70
2024/03/09 01:06:27;;;;;;;1999.90;999.90;;;;;;;3.29;89.49;100422.47;10339131;28;20423;-70
2024/03/09 01:11:30;;;;;;;1999.90;999.90;;;;;;;3.23;89.23;100409.72;10339231;28;20050;-70
2024/03/09 01:16:33;;;;;;;1999.90;999.90;;;;;;;3.44;90.45;100408.19;10338836;28;20054;-70
2024/03/09 01:21:35;;;;;;;1999.90;999.90;;;;;;;3.19;91.09;100406.41;10338673;28;20054;-70
2024/03/09 01:26:38;;;;;;;1999.90;999.90;;;;;;;3.25;89.41;100426.06;10338579;28;20093;-70
2024/03/09 01:31:40;;;;;;;1999.90;999.90;;;;;;;3.30;89.63;100401.72;10338939;28;20129;-69
2024/03/09 01:36:45;;;;;;;1999.90;999.90;;;;;;;3.18;89.56;100394.38;10338072;28;20054;-70
2024/03/09 01:41:48;;;;;;;1999.90;999.90;;;;;;;3.12;90.27;100392.81;10338488;28;20054;-69
2024/03/09 01:46:51;;;;;;;1999.90;999.90;;;;;;;3.38;89.62;100387.69;10353270;28;20054;-69
2024/03/09 01:51:55;;;;;;;1999.90;999.90;;;;;;;3.21;89.91;100383.06;10352567;28;20148;-69
2024/03/09 01:56:58;;;;;;;1999.90;999.90;;;;;;;3.06;90.67;100379.25;10351959;28;20058;-69
2024/03/09 02:02:01;;;;;;;1999.90;999.90;;;;;;;2.78;90.34;100372.41;10352376;28;20046;-70
2024/03/09 02:07:04;;;;;;;1999.90;999.90;;;;;;;2.84;88.35;100373.94;10351879;28;20414;-69
2024/03/09 02:12:07;;;;;;;1999.90;999.90;;;;;;;2.90;91.75;100363.41;10336993;28;20126;-70
2024/03/09 02:17:11;;;;;;;1999.90;999.90;;;;;;;2.66;91.07;100363.28;10336664;28;20133;-70
2024/03/09 02:22:18;;;;;;;1999.90;999.90;;;;;;;2.49;91.67;100358.66;10336692;28;20056;-70
2024/03/09 02:27:20;;;;;;;1999.90;999.90;;;;;;;2.26;93.36;100358.50;10336526;28;20402;-70
2024/03/09 02:32:23;;;;;;;1999.90;999.90;;;;;;;2.13;94.39;100348.53;10351229;28;20046;-69
2024/03/09 02:37:25;;;;;;;1999.90;999.90;;;;;;;2.23;95.46;100346.53;10335949;28;20061;-69
2024/03/09 02:42:28;;;;;;;1999.90;999.90;;;;;;;2.24;93.24;100343.06;10335500;28;20046;-69
2024/03/09 02:47:31;;;;;;;1999.90;999.90;;;;;;;2.22;92.07;100340.50;10335261;28;20196;-69
2024/03/09 02:52:33;;;;;;;1999.90;999.90;;;;;;;2.33;92.90;100331.59;10334550;28;20551;-69
2024/03/09 02:57:36;;;;;;;1999.90;999.90;;;;;;;2.56;91.78;100329.13;10335145;28;20053;-69
2024/03/09 03:08:04;;;;;;;1999.90;999.90;;;;;;;2.72;91.05;100323.47;10307967;28;20082;-69
2024/03/09 03:13:07;;;;;;;1999.90;999.90;;;;;;;2.49;91.48;100319.03;10349181;28;20042;-70
2024/03/09 03:18:09;;;;;;;1999.90;999.90;;;;;;;2.78;91.42;100318.09;10334176;28;20129;-69
2024/03/09 03:23:12;;;;;;;1999.90;999.90;;;;;;;2.67;91.93;100312.44;10334524;28;20050;-69
2024/03/09 03:28:16;;;;;;;1999.90;999.90;;;;;;;2.51;93.75;100309.50;10333861;28;20530;-70
2024/03/09 03:33:20;;;;;;;1999.90;999.90;;;;;;;2.78;92.81;100300.00;10333503;28;20129;-69
2024/03/09 03:38:22;;;;;;;1999.90;999.90;;;;;;;2.83;94.43;100302.44;10333565;28;20568;-69
2024/03/09 03:43:25;;;;;;;1999.90;999.90;;;;;;;3.01;92.41;100303.56;10333721;28;20532;-69
2024/03/09 03:48:29;;;;;;;1999.90;999.90;;;;;;;3.21;91.66;100301.16;10333477;28;20054;-69
2024/03/09 03:53:31;;;;;;;1999.90;999.90;;;;;;;2.87;92.00;100299.69;10332889;28;20054;-70
2024/03/09 03:58:34;;;;;;;1999.90;999.90;;;;;;;3.32;92.95;100293.84;10333469;28;20050;-70
2024/03/09 04:03:37;;;;;;;1999.90;999.90;;;;;;;3.28;92.57;100301.78;10333171;28;20046;-70
2024/03/09 04:08:40;;;;;;;1999.90;999.90;;;;;;;3.17;92.72;100289.19;10333028;28;20439;-69
2024/03/09 04:13:43;;;;;;;1999.90;999.90;;;;;;;3.24;93.21;100285.50;10332810;28;20480;-70
2024/03/09 04:18:46;;;;;;;1999.90;999.90;;;;;;;3.28;94.18;100274.16;10335179;28;20607;-70
2024/03/09 04:23:49;;;;;;;1999.90;999.90;;;;;;;3.29;93.43;100277.56;10341068;28;20054;-69
2024/03/09 04:28:52;;;;;;;1999.90;999.90;;;;;;;3.28;93.20;100268.97;10340753;28;20517;-69
2024/03/09 04:33:54;;;;;;;1999.90;999.90;;;;;;;3.34;93.04;100266.16;10340715;28;20042;-70
2024/03/09 04:39:00;;;;;;;1999.90;999.90;;;;;;;3.25;92.33;100266.50;10355618;28;20334;-69
2024/03/09 04:44:03;;;;;;;1999.90;999.90;;;;;;;3.20;92.79;100262.41;10340524;28;20078;-70
2024/03/09 04:49:11;;;;;;;1999.90;999.90;;;;;;;3.38;93.18;100261.75;10339921;28;20052;-69
2024/03/09 04:54:13;;;;;;;1999.90;999.90;;;;;;;3.14;92.67;100264.31;10339831;28;20086;-70
2024/03/09 04:59:16;;;;;;;1999.90;999.90;;;;;;;2.95;94.56;100266.66;10339760;28;20133;-70
2024/03/09 05:04:19;;;;;;;1999.90;999.90;;;;;;;3.32;93.80;100257.59;10354438;28;20054;-69
2024/03/09 05:09:26;;;;;;;1999.90;999.90;;;;;;;3.25;92.63;100250.97;10353718;28;20129;-70
2024/03/09 05:14:30;;;;;;;1999.90;999.90;;;;;;;2.98;94.47;100253.63;10338950;28;20057;-70
2024/03/09 05:19:32;;;;;;;1999.90;999.90;;;;;;;3.08;94.83;100253.31;10353729;28;20105;-70
2024/03/09 05:24:35;;;;;;;1999.90;999.90;;;;;;;3.03;94.61;100248.31;10338824;28;20043;-70
2024/03/09 05:29:38;;;;;;;1999.90;999.90;;;;;;;2.99;95.06;100238.94;10337859;28;20497;-70
2024/03/09 05:34:41;;;;;;;1999.90;999.90;;;;;;;2.88;94.56;100235.91;10338290;28;20046;-70
2024/03/09 05:39:43;;;;;;;1999.90;999.90;;;;;;;2.95;96.17;100238.22;10338080;28;20121;-70
2024/03/09 05:44:45;;;;;;;1999.90;999.90;;;;;;;2.80;95.71;100233.56;10337825;28;20506;-70
2024/03/09 05:49:48;;;;;;;1999.90;999.90;;;;;;;2.90;96.46;100219.44;10337478;28;20466;-70
2024/03/09 05:54:50;;;;;;;1999.90;999.90;;;;;;;3.06;94.83;100219.75;10337829;28;20057;-70
2024/03/09 05:59:54;;;;;;;1999.90;999.90;;;;;;;3.07;94.98;100216.25;10337329;28;20061;-70
2024/03/09 06:04:56;;;;;;;1999.90;999.90;;;;;;;3.12;94.11;100216.94;10336937;28;20050;-70
2024/03/09 06:10:00;;;;;;;1999.90;999.90;;;;;;;3.06;95.10;100213.72;10468954;22;20056;-70
2024/03/09 06:15:04;;;;;;;1999.90;999.90;;;;;;;3.00;94.71;100208.78;10483257;28;20071;-73
2024/03/09 06:20:07;;;;;;;1999.90;999.90;;;;;;;2.94;95.13;100213.28;10466684;28;20076;-72
2024/03/09 06:25:20;;;;;;;1999.90;999.90;;;;;;;3.11;95.19;100212.66;10500576;28;20052;-72
2024/03/09 06:30:23;;;;;;;1999.90;999.90;;;;;;;3.29;94.87;100199.97;10483468;28;20049;-73
2024/03/09 06:35:33;;;;;;;1999.90;999.90;;;;;;;2.97;93.99;100210.56;10483353;28;20470;-73
2024/03/09 06:40:38;;;;;;;1999.90;999.90;;;;;;;2.91;96.41;100207.38;10482435;28;20094;-72
2024/03/09 06:45:42;;;;;;;1999.90;999.90;;;;;;;3.08;95.71;100209.34;10481373;28;20052;-73
2024/03/09 06:50:44;;;;;;;1999.90;999.90;;;;;;;3.22;95.48;100208.84;10465340;28;20056;-73
2024/03/09 06:55:47;;;;;;;1999.90;999.90;;;;;;;3.35;95.83;100213.50;10499043;28;20127;-73
2024/03/09 07:00:52;;;;;;;1999.90;999.90;;;;;;;3.43;95.61;100214.97;10498975;28;20459;-73
2024/03/09 07:05:54;;;;;;;1999.90;999.90;;;;;;;3.44;95.05;100214.91;10498833;28;20090;-70
2024/03/09 07:10:57;;;;;;;1999.90;999.90;;;;;;;3.66;93.95;100214.94;10498400;28;20083;-72
2024/03/09 07:16:03;;;;;;;1999.90;999.90;;;;;;;3.84;92.84;100212.56;10481133;28;20451;-71
2024/03/09 07:21:06;;;;;;;1999.90;999.90;;;;;;;3.93;93.48;100214.78;10498489;28;20049;-72
2024/03/09 07:26:12;;;;;;;1999.90;999.90;;;;;;;4.13;92.25;100219.19;10498456;28;20119;-72
2024/03/09 07:31:15;;;;;;;1999.90;999.90;;;;;;;4.68;90.94;100204.88;10497970;28;20044;-71
2024/03/09 07:36:20;;;;;;;1999.90;999.90;;;;;;;4.37;90.65;100214.78;10498079;28;20064;-72
2024/03/09 07:41:23;;;;;;;1999.90;999.90;;;;;;;4.31;92.63;100219.38;10480296;28;20078;-71
2024/03/09 07:46:25;;;;;;;1999.90;999.90;;;;;;;4.40;93.04;100219.81;10479711;28;20068;-71
2024/03/09 07:51:29;;;;;;;1999.90;999.90;;;;;;;4.61;92.02;100210.31;10497627;28;20049;-72
2024/03/09 07:56:32;;;;;;;1999.90;999.90;;;;;;;4.67;92.23;100213.56;10479390;28;20440;-72
2024/03/09 08:01:38;;;;;;;1999.90;999.90;;;;;;;4.84;92.35;100211.06;10497207;28;20048;-72
2024/03/09 08:06:43;;;;;;;1999.90;999.90;;;;;;;4.96;91.34;100201.91;10479849;28;20048;-72
2024/03/09 08:11:49;;;;;;;1999.90;999.90;;;;;;;5.64;90.66;100198.91;10497121;28;20078;-72
2024/03/09 08:16:51;;;;;;;1999.90;999.90;;;;;;;6.31;87.32;100197.47;10479701;28;20493;-72
2024/03/09 08:21:54;;;;;;;1999.90;999.90;;;;;;;6.59;84.25;100199.53;10496710;28;20386;-72
2024/03/09 08:26:56;;;;;;;1999.90;999.90;;;;;;;6.66;83.02;100193.09;10496910;28;20079;-72
2024/03/09 08:31:59;;;;;;;1999.90;999.90;;;;;;;6.56;83.18;100185.84;10496924;28;20084;-71
2024/03/09 08:37:08;;;;;;;1999.90;999.90;;;;;;;8.12;82.03;100160.97;10496524;28;20406;-72
2024/03/09 08:42:11;;;;;;;1999.90;999.90;;;;;;;8.90;75.36;100163.38;10496619;28;20128;-72
2024/03/09 08:47:14;;;;;;;1999.90;999.90;;;;;;;8.34;75.57;100171.00;10496099;28;20433;-72
2024/03/09 08:52:18;;;;;;;1999.90;999.90;;;;;;;8.71;73.92;100166.25;10496160;28;20511;-71
2024/03/09 08:57:20;;;;;;;1999.90;999.90;;;;;;;9.37;70.77;100168.38;10496228;28;20080;-71
2024/03/09 09:02:23;;;;;;;1999.90;999.90;;;;;;;9.81;68.49;100165.56;10478364;28;20513;-72
2024/03/09 09:07:25;;;;;;;1999.90;999.90;;;;;;;10.87;67.80;100164.75;10500083;28;20489;-71
2024/03/09 09:12:28;;;;;;;1999.90;999.90;;;;;;;11.42;66.37;100144.34;10485909;28;20127;-71
2024/03/09 09:17:30;;;;;;;1999.90;999.90;;;;;;;11.69;63.94;100137.09;10502868;28;20489;-71
2024/03/09 09:22:32;;;;;;;1999.90;999.90;;;;;;;11.49;63.02;100128.03;10485059;28;20052;-71
2024/03/09 09:27:36;;;;;;;1999.90;999.90;;;;;;;13.16;59.32;100131.34;10502767;28;20102;-72
2024/03/09 09:32:40;;;;;;;1999.90;999.90;;;;;;;12.37;58.56;100119.03;10484927;28;20052;-72
2024/03/09 09:37:44;;;;;;;1999.90;999.90;;;;;;;13.99;57.39;100122.06;10485663;28;20052;-72
2024/03/09 09:42:47;;;;;;;1999.90;999.90;;;;;;;13.67;61.55;100128.19;10484606;28;20052;-72
2024/03/09 09:47:50;;;;;;;1999.90;999.90;;;;;;;14.95;56.99;100124.63;10468067;28;20087;-72
2024/03/09 09:52:55;;;;;;;1999.90;999.90;;;;;;;15.07;55.04;100128.00;10501826;28;20124;-73
2024/03/09 09:57:58;;;;;;;1999.90;999.90;;;;;;;15.32;53.32;100121.41;10501835;28;20082;-72
2024/03/09 10:03:01;;;;;;;1999.90;999.90;;;;;;;15.64;52.35;100113.25;10483589;28;20413;-71
2024/03/09 10:08:11;;;;;;;1999.90;999.90;;;;;;;18.35;48.09;100106.09;10483427;28;20091;-72
2024/03/09 10:13:18;;;;;;;;;;;;;;;15.44;50.70;100098.38;10484280;28;20063;-71
2024/03/09 10:18:21;;;;;;;1999.90;999.90;;;;;;;16.62;49.79;100092.03;10500512;28;19936;-72
2024/03/09 10:23:23;;;;;;;1999.90;999.90;;;;;;;17.50;48.70;100075.72;10500873;28;20091;-71
2024/03/09 10:28:26;;;;;;;1999.90;999.90;;;;;;;17.89;48.84;100075.47;10500533;28;20045;-72
2024/03/09 10:33:32;;;;;;;1999.90;999.90;;;;;;;18.49;49.01;100070.25;10482429;28;20076;-72
2024/03/09 10:38:40;;;;;;;1999.90;999.90;;;;;;;20.62;45.36;100055.59;10499870;28;20060;-72
2024/03/09 10:43:42;;;;;;;1999.90;999.90;;;;;;;20.39;46.40;100055.50;10499810;28;20044;-71
2024/03/09 10:48:56;;;;;;;1999.90;999.90;;;;;;;19.94;45.20;100049.75;10481832;28;20131;-71
2024/03/09 10:54:06;;;;;;;1999.90;999.90;;;;;;;17.94;49.49;100057.31;10499173;28;20052;-72
2024/03/09 10:59:10;;;;;;;1999.90;999.90;;;;;;;17.86;49.31;100043.97;10499644;28;20052;-72
2024/03/09 11:04:15;;;;;;;1999.90;999.90;;;;;;;15.88;51.54;100052.16;10498689;28;20044;-72
2024/03/09 11:09:29;;;;;;;1999.90;999.90;;;;;;;16.27;51.05;100044.19;10480965;28;20111;-72
2024/03/09 11:14:33;;;;;;;1999.90;999.90;;;;;;;17.38;50.45;100049.50;10482098;28;20049;-72
2024/03/09 11:19:40;;;;;;;1999.90;999.90;;;;;;;18.91;49.33;100047.41;10498781;28;20048;-73
2024/03/09 11:24:43;;;;;;;1999.90;999.90;;;;;;;17.09;50.84;100050.50;10481289;28;20049;-72
2024/03/09 11:29:45;;;;;;;1999.90;999.90;;;;;;;15.61;53.18;100050.19;10463681;28;20056;-72
2024/03/09 11:34:48;;;;;;;1999.90;999.90;;;;;;;16.45;53.29;100032.88;10480387;28;20055;-72
2024/03/09 11:39:50;;;;;;;1999.90;999.90;;;;;;;18.02;51.24;100020.25;10480172;28;20062;-72
2024/03/09 11:44:54;;;;;;;1999.90;999.90;;;;;;;17.45;51.36;100018.00;10497892;28;20123;-73
2024/03/09 11:49:56;;;;;;;1999.90;999.90;;;;;;;19.86;45.52;100001.94;10480071;28;20400;-73
2024/03/09 11:55:02;;;;;;;1999.90;999.90;;;;;;;18.48;47.38;100006.81;10497748;28;20076;-73
2024/03/09 12:00:09;;;;;;;1999.90;999.90;;;;;;;16.77;50.94;100007.81;10480311;28;20060;-73
2024/03/09 12:05:15;;;;;;;1999.90;999.90;;;;;;;17.32;51.48;100001.66;10497075;28;20049;-72
2024/03/09 12:10:19;;;;;;;1999.90;999.90;;;;;;;20.60;47.30;99991.13;10479647;28;20052;-73
2024/03/09 12:15:22;;;;;;;1999.90;999.90;;;;;;;17.48;49.52;99990.38;10479253;28;20048;-72
2024/03/09 12:20:24;;;;;;;1999.90;999.90;;;;;;;19.18;48.20;99977.38;10497084;28;20455;-72
2024/03/09 12:25:28;;;;;;;1999.90;999.90;;;;;;;20.37;47.03;99962.63;10462513;28;20049;-73
2024/03/09 12:30:30;;;;;;;1999.90;999.90;;;;;;;21.68;44.61;99965.50;10497036;28;20048;-73
2024/03/09 12:35:35;;;;;;;1999.90;999.90;;;;;;;18.53;47.56;99967.41;10496482;28;20048;-72
2024/03/09 12:40:38;;;;;;;1999.90;999.90;;;;;;;17.95;48.62;99975.03;10498463;28;20083;-73
2024/03/09 12:45:44;;;;;;;1999.90;999.90;;;;;;;19.65;44.73;99966.09;10486493;28;20409;-72
2024/03/09 12:50:50;;;;;;;1999.90;999.90;;;;;;;22.34;41.99;99956.81;10486796;28;20053;-72
2024/03/09 12:55:53;;;;;;;1999.90;999.90;;;;;;;18.56;46.93;99954.66;10486954;28;20375;-72
2024/03/09 13:00:55;;;;;;;1999.90;999.90;;;;;;;17.74;48.65;99948.91;10503686;28;20084;-74
2024/03/09 13:06:02;;;;;;;1999.90;999.90;;;;;;;16.60;51.56;99943.38;10503919;28;20123;-72
2024/03/09 13:11:05;;;;;;;1999.90;999.90;;;;;;;16.40;52.48;99942.66;10503419;28;20057;-72
2024/03/09 13:16:10;;;;;;;1999.90;999.90;;;;;;;17.03;51.91;99929.50;10503602;28;20041;-72
2024/03/09 13:21:14;;;;;;;1999.90;999.90;;;;;;;16.85;51.83;99936.56;10502943;28;20048;-73
2024/03/09 13:26:18;;;;;;;1999.90;999.90;;;;;;;15.92;53.39;99926.84;10485169;28;20134;-72
2024/03/09 13:31:23;;;;;;;1999.90;999.90;;;;;;;15.66;53.68;99923.97;10469379;28;20048;-73
2024/03/09 13:36:25;;;;;;;1999.90;999.90;;;;;;;16.39;52.86;99911.91;10484832;28;20056;-73
2024/03/09 13:41:28;;;;;;;1999.90;999.90;;;;;;;17.06;52.44;99910.69;10484995;28;20052;-73
2024/03/09 13:46:30;;;;;;;1999.90;999.90;;;;;;;15.71;52.89;99907.72;10502195;28;20132;-73
2024/03/09 13:51:33;;;;;;;1999.90;999.90;;;;;;;16.52;53.18;99902.69;10483509;28;20053;-73
2024/03/09 13:56:36;;;;;;;1999.90;999.90;;;;;;;15.75;53.65;99909.06;10501905;28;20094;-73
2024/03/09 14:01:38;;;;;;;1999.90;999.90;;;;;;;15.89;53.47;99897.28;10501593;28;20124;-74
2024/03/09 14:06:40;;;;;;;1999.90;999.90;;;;;;;15.67;54.37;99901.88;10501155;28;20044;-71
2024/03/09 14:12:03;;;;;;;1999.90;999.90;;;;;;;15.60;55.35;99900.78;10501508;28;20045;-73
2024/03/09 14:17:08;;;;;;;1999.90;999.90;;;;;;;15.55;55.41;99910.94;10500935;28;20051;-73
2024/03/09 14:22:13;;;;;;;1999.90;999.90;;;;;;;15.32;56.36;99902.50;10483201;28;20052;-73
2024/03/09 14:27:19;;;;;;;1999.90;999.90;;;;;;;15.59;55.69;99893.84;10500765;28;20045;-73
2024/03/09 14:32:22;;;;;;;1999.90;999.90;;;;;;;15.92;54.12;99892.53;10500399;28;20140;-74
2024/03/09 14:37:25;;;;;;;1999.90;999.90;;;;;;;15.42;54.81;99880.41;10500030;28;20055;-73
2024/03/09 14:42:28;;;;;;;1999.90;999.90;;;;;;;15.86;53.90;99877.28;10499988;28;20072;-72
2024/03/09 14:47:31;;;;;;;1999.90;999.90;;;;;;;16.48;52.91;99864.31;10499600;28;20102;-73
2024/03/09 14:52:34;;;;;;;1999.90;999.90;;;;;;;18.30;49.93;99858.50;10499399;28;20107;-73
2024/03/09 14:57:37;;;;;;;1999.90;999.90;;;;;;;18.29;49.51;99852.38;10499263;28;20047;-73
2024/03/09 15:02:40;;;;;;;1999.90;999.90;;;;;;;17.58;50.04;99856.97;10498332;28;20102;-73
2024/03/09 15:07:42;;;;;;;1999.90;999.90;;;;;;;22.23;42.17;99835.47;10498673;28;20131;-73
2024/03/09 15:12:45;;;;;;;1999.90;999.90;;;;;;;20.30;46.11;99834.06;10464420;28;20060;-72
2024/03/09 15:17:49;;;;;;;1999.90;999.90;;;;;;;20.30;45.99;99830.59;10498612;28;20069;-72
2024/03/09 15:22:57;;;;;;;1999.90;999.90;;;;;;;20.45;46.89;99836.81;10497749;28;20048;-72
2024/03/09 15:28:00;;;;;;;1999.90;999.90;;;;;;;19.03;46.99;99831.28;10498238;28;20040;-73
2024/03/09 15:33:02;;;;;;;1999.90;999.90;;;;;;;16.94;51.84;99829.91;10498207;28;20060;-72
2024/03/09 15:38:05;;;;;;;1999.90;999.90;;;;;;;16.85;52.94;99826.38;10497871;28;20477;-72
2024/03/09 15:43:08;;;;;;;1999.90;999.90;;;;;;;16.90;53.72;99824.09;10497954;28;20056;-72
2024/03/09 15:48:13;;;;;;;1999.90;999.90;;;;;;;16.71;53.21;99817.13;10497484;28;20110;-72
2024/03/09 15:53:15;;;;;;;1999.90;999.90;;;;;;;16.04;54.51;99800.78;10497573;28;20492;-72
2024/03/09 15:58:18;;;;;;;1999.90;999.90;;;;;;;15.08;56.99;99808.03;10463024;28;20052;-72
2024/03/09 16:03:22;;;;;;;1999.90;999.90;;;;;;;15.12;57.38;99801.50;10497474;28;20052;-72
2024/03/09 16:08:26;;;;;;;1999.90;999.90;;;;;;;15.38;56.10;99794.66;10497099;28;20089;-73
2024/03/09 16:13:30;;;;;;;1999.90;999.90;;;;;;;15.35;57.57;99794.94;10479629;28;20436;-73
2024/03/09 16:18:33;;;;;;;1999.90;999.90;;;;;;;15.18;58.46;99793.88;10505585;28;20048;-73
2024/03/09 16:23:43;;;;;;;1999.90;999.90;;;;;;;14.63;59.31;99796.28;10505277;28;20060;-73
2024/03/09 16:28:46;;;;;;;;;;;;;;;14.19;61.39;99803.66;10505814;28;20052;-73
2024/03/09 16:33:49;;;;;;;1999.90;999.90;;;;;;;14.08;60.51;99800.19;10487226;28;19966;-73
2024/03/09 16:38:51;;;;;;;1999.90;999.90;;;;;;;13.81;61.45;99815.78;10504823;28;20395;-73
2024/03/09 16:43:54;;;;;;;1999.90;999.90;;;;;;;13.56;62.32;99813.44;10504395;28;20072;-73
2024/03/09 16:48:57;;;;;;;1999.90;999.90;;;;;;;13.01;62.99;99811.03;10504611;28;20052;-73
2024/03/09 16:54:00;;;;;;;1999.90;999.90;;;;;;;13.30;62.69;99817.44;10504095;28;20052;-72
2024/03/09 16:59:04;;;;;;;1999.90;999.90;;;;;;;13.13;63.98;99818.84;10503965;28;20520;-72
2024/03/09 17:04:11;;;;;;;1999.90;999.90;;;;;;;12.69;64.70;99829.44;10503790;28;20436;-73
2024/03/09 17:09:14;;;;;;;1999.90;999.90;;;;;;;12.63;64.10;99828.16;10503354;28;20057;-73
2024/03/09 17:14:18;;;;;;;1999.90;999.90;;;;;;;12.13;65.06;99840.91;10503619;28;20076;-73
2024/03/09 17:19:21;;;;;;;1999.90;999.90;;;;;;;12.02;66.27;99838.28;10503245;28;20102;-73
2024/03/09 17:24:23;;;;;;;1999.90;999.90;;;;;;;11.89;66.88;99839.25;10503199;28;20048;-73
2024/03/09 17:29:26;;;;;;;1999.90;999.90;;;;;;;11.54;68.00;99844.59;10501771;28;20112;-73
2024/03/09 17:34:31;;;;;;;1999.90;999.90;;;;;;;11.53;67.00;99842.91;10468438;28;20383;-74
2024/03/09 17:39:34;;;;;;;1999.90;999.90;;;;;;;11.09;68.86;99854.97;10502729;28;20048;-72
2024/03/09 17:44:36;;;;;;;1999.90;999.90;;;;;;;11.27;68.11;99856.22;10502289;28;20041;-73
2024/03/09 17:49:39;;;;;;;1999.90;999.90;;;;;;;10.67;70.65;99862.41;10502501;28;20083;-72
2024/03/09 17:54:45;;;;;;;1999.90;999.90;;;;;;;10.31;72.03;99864.94;10501743;28;20440;-72
2024/03/09 17:59:48;;;;;;;1999.90;999.90;;;;;;;10.20;72.31;99865.69;10501687;28;20079;-73
2024/03/09 18:04:51;;;;;;;1999.90;999.90;;;;;;;10.26;71.85;99869.66;10483811;28;20102;-73
2024/03/09 18:09:53;;;;;;;1999.90;999.90;;;;;;;10.08;72.19;99879.63;10501350;28;20052;-73
2024/03/09 18:15:00;;;;;;;1999.90;999.90;;;;;;;9.67;73.47;99875.50;10501554;28;20055;-73
2024/03/09 18:20:09;;;;;;;1999.90;999.90;;;;;;;9.27;74.71;99871.16;10500914;28;20053;-73
2024/03/09 18:25:17;;;;;;;1999.90;999.90;;;;;;;9.22;75.56;99875.84;10456885;22;20470;-66
2024/03/09 18:30:23;;;;;;;1999.90;999.90;;;;;;;9.06;75.81;99865.59;10457955;28;20045;-66
2024/03/09 18:35:25;;;;;;;1999.90;999.90;;;;;;;8.88;77.99;99865.03;10458860;28;20401;-66
2024/03/09 18:40:29;;;;;;;1999.90;999.90;;;;;;;8.92;77.05;99871.72;10458394;28;20459;-66
2024/03/09 18:45:32;;;;;;;1999.90;999.90;;;;;;;8.85;78.40;99869.63;10458400;28;20406;-67
2024/03/09 18:50:36;;;;;;;1999.90;999.90;;;;;;;9.05;77.59;99865.69;10458252;28;20494;-66
2024/03/09 18:55:38;;;;;;;1999.90;999.90;;;;;;;8.89;79.31;99858.88;10457938;28;20098;-66
2024/03/09 19:00:43;;;;;;;1999.90;999.90;;;;;;;9.09;77.39;99854.97;10457803;28;20501;-66
2024/03/09 19:05:46;;;;;;;1999.90;999.90;;;;;;;9.01;77.17;99849.41;10439949;28;20083;-67
2024/03/09 19:10:49;;;;;;;1999.90;999.90;;;;;;;9.02;77.34;99847.63;10457442;28;20532;-66
2024/03/09 19:15:54;;;;;;;1999.90;999.90;;;;;;;9.08;76.83;99852.44;10457035;28;20410;-66
2024/03/09 19:20:57;;;;;;;1999.90;999.90;;;;;;;9.13;76.50;99844.28;10456811;28;20049;-66
2024/03/09 19:26:00;;;;;;;1999.90;999.90;;;;;;;8.98;75.72;99844.38;10456787;28;20404;-67
2024/03/09 19:31:08;;;;;;;1999.90;999.90;;;;;;;8.90;76.26;99844.03;10456729;28;20071;-66
2024/03/09 19:36:12;;;;;;;1999.90;999.90;;;;;;;8.92;76.34;99839.56;10456726;28;20053;-66
2024/03/09 19:41:18;;;;;;;1999.90;999.90;;;;;;;8.66;77.67;99839.50;10456430;28;20131;-66
2024/03/09 19:46:20;;;;;;;1999.90;999.90;;;;;;;8.80;75.64;99835.97;10456551;28;20099;-66
2024/03/09 19:51:24;;;;;;;1999.90;999.90;;;;;;;8.77;76.97;99844.00;10455449;28;20051;-66
2024/03/09 19:56:27;;;;;;;1999.90;999.90;;;;;;;8.73;76.64;99843.38;10456254;28;20049;-66
2024/03/09 20:01:30;;;;;;;1999.90;999.90;;;;;;;8.49;76.70;99850.16;10454811;28;20060;-66
2024/03/09 20:06:32;;;;;;;1999.90;999.90;;;;;;;8.62;76.35;99845.81;10455874;28;20098;-67
2024/03/09 20:11:35;;;;;;;1999.90;999.90;;;;;;;8.52;76.51;99840.38;10454836;28;20080;-66
2024/03/09 20:16:37;;;;;;;1999.90;999.90;;;;;;;8.30;77.63;99853.06;10455672;28;20049;-66
2024/03/09 20:21:40;;;;;;;1999.90;999.90;;;;;;;9.75;71.54;99838.34;10455451;28;20068;-66
2024/03/09 20:26:46;;;;;;;1999.90;999.90;;;;;;;9.31;72.82;99853.50;10455387;28;20119;-66
2024/03/09 20:31:49;;;;;;;1999.90;999.90;;;;;;;9.64;71.95;99852.19;10455613;28;20049;-67
2024/03/09 20:36:51;;;;;;;1999.90;999.90;;;;;;;9.07;72.94;99850.75;10454262;28;20044;-66
2024/03/09 20:41:54;;;;;;;1999.90;999.90;;;;;;;8.99;74.23;99846.03;10455201;28;20132;-66
2024/03/09 20:46:56;;;;;;;1999.90;999.90;;;;;;;9.05;74.50;99856.09;10455258;28;20049;-66
2024/03/09 20:51:59;;;;;;;1999.90;999.90;;;;;;;8.93;72.78;99854.28;10454885;28;20516;-66
2024/03/09 20:57:01;;;;;;;1999.90;999.90;;;;;;;9.02;73.85;99853.69;10453704;28;20401;-66
2024/03/09 21:02:13;;;;;;;1999.90;999.90;;;;;;;8.93;74.20;99849.91;10456078;28;20053;-66
2024/03/09 21:07:16;;;;;;;1999.90;999.90;;;;;;;8.83;73.77;99845.41;10462674;28;20045;-66
2024/03/09 21:12:19;;;;;;;1999.90;999.90;;;;;;;9.14;73.60;99835.53;10462130;28;20141;-66
2024/03/09 21:17:21;;;;;;;1999.90;999.90;;;;;;;8.90;74.42;99839.66;10461925;28;20486;-67
2024/03/09 21:22:24;;;;;;;1999.90;999.90;;;;;;;9.21;72.16;99835.03;10460779;28;20061;-66
2024/03/09 21:27:26;;;;;;;1999.90;999.90;;;;;;;8.96;74.05;99821.91;10443837;28;20552;-67
2024/03/09 21:32:29;;;;;;;1999.90;999.90;;;;;;;9.02;72.50;99817.13;10461577;28;20049;-67
2024/03/09 21:37:31;;;;;;;1999.90;999.90;;;;;;;9.00;72.26;99815.56;10460992;28;20490;-66
2024/03/09 21:42:35;;;;;;;1999.90;999.90;;;;;;;8.96;73.35;99814.09;10461072;28;20065;-67
2024/03/09 21:47:39;;;;;;;1999.90;999.90;;;;;;;8.78;74.41;99814.38;10460742;28;20570;-66
2024/03/09 21:52:45;;;;;;;1999.90;999.90;;;;;;;9.17;72.80;99804.81;10460601;28;20132;-67
2024/03/09 21:57:48;;;;;;;1999.90;999.90;;;;;;;9.13;73.43;99795.53;10460509;28;20103;-67
2024/03/09 22:02:54;;;;;;;1999.90;999.90;;;;;;;8.95;73.18;99796.75;10460103;28;20080;-66
2024/03/09 22:07:58;;;;;;;1999.90;999.90;;;;;;;8.86;74.90;99793.81;10460314;28;20052;-66
2024/03/09 22:13:00;;;;;;;1999.90;999.90;;;;;;;8.94;74.04;99790.69;10459474;28;20049;-66
2024/03/09 22:18:05;;;;;;;1999.90;999.90;;;;;;;9.13;73.98;99781.63;10459897;28;20124;-66